EW8748 Mirabella Imbaccari IT current weather conditions

sailwx.info

Wind from 289

Air temperature 16.7° C
Dewpoint 11.8° C

Last reported at 2020-Jun-06 22:05 UTC.
Time now 2020-Jun-06 23:05 UTC

Location: N 37°20' E 014°27'.
View on Google Maps.

See reports from other nearby stations

  
Tides and Currents Weather Stations Pressure Air Temp Water Temp Dewpoint Dewpoint Depression Visibility Wind Speed Wind Dir Waves Ship Positions
date/time (UTC)wind fromknots sea level pressurealtimeterstation pressurevisibilityair tempwater tempwave heightnotes
2020-Jun-06 22:05 289 16.7
2020-Jun-06 21:55 289 16.7
2020-Jun-06 21:50 288 17.2
2020-Jun-06 21:45 289 17.2
2020-Jun-06 21:40 288 17.2
2020-Jun-06 21:25 292 17.8
2020-Jun-06 21:15 264 18.3
2020-Jun-06 21:10 235 18.3
2020-Jun-06 21:05 253 18.3
2020-Jun-06 21:00 269 17.8
2020-Jun-06 20:55 269 17.8
2020-Jun-06 20:45 211 1 gusting 2 17.8
2020-Jun-06 20:40 159 17.8
2020-Jun-06 20:35 140 1 gusting 2 17.8
2020-Jun-06 20:30 157 0 gusting 1 17.8
2020-Jun-06 20:25 182 18.3
2020-Jun-06 20:20 188 0 gusting 2 18.3
2020-Jun-06 20:15 173 1 gusting 2 18.3
2020-Jun-06 20:10 194 1 gusting 4 18.3
2020-Jun-06 20:05 169 1 gusting 2 18.3
2020-Jun-06 19:50 068 18.9
2020-Jun-06 19:40 150 20.0
2020-Jun-06 19:35 309 1 gusting 6 20.0
2020-Jun-06 19:20 315 6 gusting 10 20.6
2020-Jun-06 19:15 317 5 gusting 10 20.6
2020-Jun-06 19:05 306 3 gusting 8 20.0
2020-Jun-06 19:00 314 6 gusting 10 20.0
2020-Jun-06 18:55 308 5 gusting 11 20.0
2020-Jun-06 18:50 306 7 gusting 13 20.6
2020-Jun-06 18:40 314 8 gusting 11 20.6
2020-Jun-06 18:30 319 7 gusting 10 21.1
2020-Jun-06 18:25 304 7 gusting 11 21.1
2020-Jun-06 18:20 341 6 gusting 11 21.1
2020-Jun-06 18:00 323 10 gusting 15 22.2
2020-Jun-06 17:50 314 10 gusting 13 22.8
2020-Jun-06 17:45 292 6 gusting 11 22.8
2020-Jun-06 17:40 320 6 gusting 11 23.3
2020-Jun-06 17:35 308 5 gusting 10 23.3
2020-Jun-06 17:20 340 6 gusting 10 23.9
2020-Jun-06 17:15 344 6 gusting 10 23.9
2020-Jun-06 17:10 327 6 gusting 8 23.9
2020-Jun-06 17:05 333 7 gusting 10 23.9
2020-Jun-06 17:00 355 5 gusting 10 23.9
2020-Jun-06 16:45 338 6 gusting 8 24.4
2020-Jun-06 16:30 333 4 gusting 8 24.4
2020-Jun-06 16:25 325 5 gusting 10 24.4
2020-Jun-06 16:10 309 5 gusting 10 24.4
2020-Jun-06 16:05 320 7 gusting 12 24.4
2020-Jun-06 15:45 319 6 gusting 12 25.0
2020-Jun-06 15:40 320 7 gusting 12 25.0
2020-Jun-06 15:35 322 10 gusting 14 24.4
2020-Jun-06 15:20 327 7 gusting 12 25.0
2020-Jun-06 15:15 350 8 gusting 13 25.0
2020-Jun-06 15:05 294 7 gusting 12 25.0
2020-Jun-06 14:55 320 8 gusting 14 25.0
2020-Jun-06 14:50 290 6 gusting 10 25.0
2020-Jun-06 14:45 279 5 gusting 13 24.4
2020-Jun-06 14:35 267 6 gusting 10 25.0
2020-Jun-06 14:30 321 5 gusting 11 25.0
2020-Jun-06 14:25 296 7 gusting 17 25.6
2020-Jun-06 14:20 300 8 gusting 13 25.6
2020-Jun-06 14:10 011 5 gusting 8 25.0
2020-Jun-06 14:00 328 6 gusting 12 25.0
2020-Jun-06 13:55 273 7 gusting 13 24.4
2020-Jun-06 13:50 289 6 gusting 14 24.4
2020-Jun-06 13:45 286 6 gusting 12 24.4
2020-Jun-06 13:35 331 6 gusting 13 24.4
2020-Jun-06 13:30 321 8 gusting 14 24.4
2020-Jun-06 13:20 330 6 gusting 13 24.4
2020-Jun-06 13:05 313 12 gusting 17 24.4
2020-Jun-06 12:45 291 8 gusting 13 23.9
2020-Jun-06 12:40 304 5 gusting 13 23.9
2020-Jun-06 12:20 326 6 gusting 13 23.3
2020-Jun-06 12:15 312 6 gusting 11 23.3
2020-Jun-06 12:10 262 10 gusting 15 23.3
2020-Jun-06 12:00 275 7 gusting 15 22.8
2020-Jun-06 11:55 311 8 gusting 13 22.8
2020-Jun-06 11:50 316 9 gusting 17 22.8
2020-Jun-06 11:45 282 11 gusting 18 23.3
2020-Jun-06 11:35 293 10 gusting 17 23.3
2020-Jun-06 11:15 273 7 gusting 15 22.2
2020-Jun-06 11:05 295 6 gusting 13 22.2
2020-Jun-06 10:45 296 9 gusting 17 22.2
2020-Jun-06 10:40 284 6 gusting 11 22.2
2020-Jun-06 10:30 311 7 gusting 13 21.7
2020-Jun-06 10:20 286 10 gusting 14 22.2
2020-Jun-06 09:50 313 6 gusting 11 21.1
2020-Jun-06 09:45 317 4 gusting 7 21.1
2020-Jun-06 09:40 311 8 gusting 13 21.1
2020-Jun-06 09:35 271 6 gusting 11 21.1
2020-Jun-06 09:25 292 7 gusting 14 21.1
2020-Jun-06 09:20 271 3 gusting 7 21.1
2020-Jun-06 09:15 316 6 gusting 11 21.1
2020-Jun-06 09:05 280 5 gusting 13 21.1
2020-Jun-06 08:55 303 7 gusting 13 20.6
2020-Jun-06 08:45 320 7 gusting 10 20.6
2020-Jun-06 08:35 303 5 gusting 10 20.0
2020-Jun-06 08:25 282 1 gusting 8 20.6
2020-Jun-06 08:20 318 3 gusting 10 20.0
2020-Jun-06 08:10 240 2 gusting 8 19.4
2020-Jun-06 08:05 313 2 gusting 7 19.4
2020-Jun-06 08:00 299 5 gusting 10 19.4
2020-Jun-06 07:50 290 5 gusting 10 18.9
2020-Jun-06 07:40 317 0 gusting 2 18.9
2020-Jun-06 07:35 356 1 gusting 7 18.3
2020-Jun-06 07:30 18.3
2020-Jun-06 07:25 167 1 gusting 5 18.3
2020-Jun-06 07:15 323 2 gusting 13 17.8
2020-Jun-06 07:10 290 7 gusting 15 17.8
2020-Jun-06 07:00 278 7 gusting 14 17.8
2020-Jun-06 06:55 281 4 gusting 10 17.8
2020-Jun-06 06:50 282 5 gusting 11 17.8
2020-Jun-06 06:45 289 7 gusting 13 17.8
2020-Jun-06 06:35 295 6 gusting 11 17.8
2020-Jun-06 06:25 294 4 gusting 6 17.8
2020-Jun-06 06:10 287 5 gusting 10 17.2
2020-Jun-06 05:55 279 7 gusting 12 16.7
2020-Jun-06 05:50 308 7 gusting 11 16.7
2020-Jun-06 05:35 294 6 gusting 12 16.1
2020-Jun-06 05:25 279 7 gusting 12 16.1
2020-Jun-06 05:15 284 7 gusting 12 16.1
2020-Jun-06 05:00 277 8 gusting 13 15.6
2020-Jun-06 04:50 15.0
2020-Jun-06 04:45 286 6 gusting 11 15.0
2020-Jun-06 04:35 283 6 gusting 8 15.0
2020-Jun-06 04:25 293 5 gusting 10 15.0
2020-Jun-06 04:00 276 7 gusting 14 15.0
2020-Jun-06 03:55 287 7 gusting 13 15.0
2020-Jun-06 03:45 276 8 gusting 13 15.0
2020-Jun-06 03:35 284 4 gusting 12 15.0
2020-Jun-06 03:25 255 5 gusting 10 15.6
2020-Jun-06 03:10 243 6 gusting 10 15.6
2020-Jun-06 03:05 269 5 gusting 10 15.6
2020-Jun-06 03:00 245 5 gusting 12 15.6
2020-Jun-06 02:50 265 6 gusting 11 15.6
2020-Jun-06 02:45 260 5 gusting 10 15.6
2020-Jun-06 02:35 243 6 gusting 11 15.6
2020-Jun-06 02:25 222 2 gusting 7 15.0
2020-Jun-06 02:15 243 5 gusting 11 14.4
2020-Jun-06 02:05 234 4 gusting 8 14.4
2020-Jun-06 01:55 255 1 gusting 6 14.4
2020-Jun-06 01:50 234 4 gusting 6 15.0
2020-Jun-06 01:45 248 4 gusting 7 15.0
2020-Jun-06 01:35 246 1 gusting 7 15.0
2020-Jun-06 01:25 240 6 gusting 10 15.0
2020-Jun-06 01:10 249 6 gusting 11 15.0
2020-Jun-06 01:05 266 5 gusting 12 15.0
2020-Jun-06 01:00 272 5 gusting 13 15.0
2020-Jun-06 00:55 249 6 gusting 14 15.0
2020-Jun-06 00:45 239 3 gusting 10 15.0
2020-Jun-06 00:25 224 1 gusting 6 15.0
2020-Jun-06 00:15 231 2 gusting 6 15.6
2020-Jun-06 00:05 203 0 gusting 2 15.6
2020-Jun-06 00:00 209 2 gusting 6 15.6
2020-Jun-05 23:40 250 2 gusting 10 15.6
2020-Jun-05 23:25 219 2 gusting 6 15.6
2020-Jun-05 23:15 219 3 gusting 7 15.6
2020-Jun-05 23:00 299 2 gusting 7 15.6
2020-Jun-05 22:50 278 1 gusting 6 15.6
2020-Jun-05 22:45 254 1 gusting 6 15.6
2020-Jun-05 22:40 281 4 gusting 7 16.1
2020-Jun-05 22:30 261 4 gusting 6 16.1
2020-Jun-05 22:25 269 3 gusting 10 16.1
2020-Jun-05 22:15 262 3 gusting 7 16.1
2020-Jun-05 22:00 240 4 gusting 6 16.1
2020-Jun-05 21:55 260 1 gusting 5 16.1
2020-Jun-05 21:45 278 1 gusting 5 16.1